Welkom op de weersite van Veghel e.o.

Het is 2018 wel nat maar niet winters.

Wat de winter verder gaat brengen is moeilijk te voorspellen.
Enkele dagen vooruit is wel te doen.

En wat de één wenst is voor de ander weer niet leuk.

In maart weten we hoe de winter is verlopen.


Webcam Veghel  Webcam Veghel


Onweer radar Meer informatie blitzortung!


waarschuwing voor winterse neerslag Meer informatie rain snow radar


U vindt ons ook hier:

Het Weer Aktueel

European Weather Network

Weather Underground

Benelux Weer Netwerk

AWEKAS



Sneeuw/IJzel/Bevriezing van: 21-01-2018 01:00 tot: 09:59 waarschuwing voor: Sneeuw/IJzel/Bevriezing niveau: Geel info button
Lokaal glad door bevriezing van natte weggedeeltenKans op gladheid. Alle verkeersdeelnemers kunnen hinder ondervinden. Pas uw rijgedrag aan. Volg weerberichten en waarschuwingen.

METAR rapporten vliegvelden

   
EHAM - Amsterdam
Gewijzigd: 21-01-2018 02:55
Light Showers, Regen, Small Hail, Gedeeltelijk bewolkt  
Light Showers, Regen, Small Hail, Gedeeltelijk bewolkt  
   Wind: NW 16.7 km/h
Wind: NW 16.7 km/h
Temperatuur: 2°C
Voelt als: -2°C
Dauwpunt: 0°C
Vochtigheid: 87%
Barometer: 1008 hPa
Bewolking: Partly Cloudy
Zicht: meer dan 10 km
Bewolking: Licht bewolkt 609.6 m,
Gedeeltelijk bewolkt 1371.6 m
EHAM 210155Z 31009KT 290V010 9999 -SHRAGS FEW020 SCT045 02/M00 Q1008 NOSIG
EHEH - Eindhoven
Gewijzigd: 21-01-2018 03:08
Nevel, Helder  
Nevel, Helder  
   Wind: WZW 11.1 km/h
Wind: WZW 11.1 km/h
Temperatuur: 1°C
Voelt als: -2°C
Dauwpunt: 1°C
Vochtigheid: 100%
Barometer: 1009 hPa
Bewolking: Clear
Zicht: 4 km
Bewolking: Helder m
EHEH 210208Z AUTO 25006KT 3700 BR NCD 01/01 Q1009 GRN
EHGR - Gilze/Rijen
Gewijzigd: 21-01-2018 02:55
Helder  
Helder  
   Wind: Westen 7.4 km/h
Wind: Westen 7.4 km/h
Temperatuur: 2°C
Voelt als: 0°C
Dauwpunt: 1°C
Vochtigheid: 93%
Barometer: 1008 hPa
Bewolking: Clear
Zicht: meer dan 10 km
Bewolking: Helder m
EHGR 210155Z AUTO 26004KT 9999 NCD 02/01 Q1008 BLU
EHBK - Maastricht
Gewijzigd: 21-01-2018 02:55
Nevel, Bewolking  
Nevel, Bewolking  
   Wind: Westen 9.3 km/h
Wind: Westen 9.3 km/h
Temperatuur: 2°C
Voelt als: -1°C
Dauwpunt: 2°C
Vochtigheid: 100%
Barometer: 1008 hPa
Bewolking: Overcast
Zicht: 3 km
Bewolking: Licht bewolkt 61 m,
Grotendeels bewolkt 121.9 m,
Bewolking 152.4 m
EHBK 210155Z AUTO 27005KT 240V310 2900 BR FEW002 BKN004 OVC005 02/02 Q1008
EHVK - Volkel
Gewijzigd: 21-01-2018 03:04
Nevel, Helder  
Nevel, Helder  
   Wind: Westen 9.3 km/h
Wind: Westen 9.3 km/h
Temperatuur: 2°C
Voelt als: -1°C
Dauwpunt: 1°C
Vochtigheid: 93%
Barometer: 1008 hPa
Bewolking: Clear
Zicht: 7 km
Bewolking: Helder m
EHVK 210204Z AUTO 27005KT 7000 BR NCD 02/01 Q1008 WHT
EHFS - Vlissingen
Gewijzigd: 21-01-2018 02:55
Helder  
Helder  
   Wind: NNW 16.7 km/h
Wind: NNW 16.7 km/h
Temperatuur: 4°C
Voelt als: 0°C
Dauwpunt: 1°C
Vochtigheid: 81%
Barometer: 1010 hPa
Bewolking: Clear
Zicht: meer dan 10 km
Bewolking: Helder m
EHFS 210155Z AUTO 33009KT 290V010 9999 NCD 04/01 Q1010 W///H///

Script ontwikkeld door  Saratoga-weather.org Aangepast voor de template door  Weerstation Leuven

Apparatuur in gebruik:

Weerstation
Davis VP2

Weerprogramma
WeatherLink

Weercomputer
Sponsor

Webleverancier
My provider

Davis VP2

WeatherLink

Sponsor

My provider